This is the latest recevied weather packets stored in our database for station/object KD4WLE. If no packets are shown the sender has not sent any weather packets the latest 10 day(s).
| Time | Temp. | Humidity | Pressure | Rain* | Wind** | Luminosity | Snow |
|---|---|---|---|---|---|---|---|
| 1777900500 | 24.44° C | 68% | 1017.6 hPa | 0 mm | - | 351 W/m² | - |
| 1777900197 | 24.44° C | 68% | 1017.7 hPa | 0 mm | - | 317 W/m² | - |
| 1777899893 | 23.89° C | 67% | 1017.7 hPa | 0 mm | - | 306 W/m² | - |
| 1777899590 | 23.89° C | 66% | 1017.8 hPa | 0 mm | - | 279 W/m² | - |
| 1777899288 | 23.89° C | 68% | 1017.7 hPa | 0 mm | - | 267 W/m² | - |
| 1777898985 | 23.89° C | 71% | 1017.5 hPa | 0 mm | - | 248 W/m² | - |
| 1777898682 | 23.89° C | 72% | 1017.5 hPa | 0 mm | - | 236 W/m² | - |
| 1777898379 | 23.33° C | 74% | 1017.2 hPa | 0 mm | - | 212 W/m² | - |
| 1777898076 | 22.78° C | 75% | 1017.3 hPa | 0 mm | - | 202 W/m² | - |
| 1777897767 | 22.22° C | 76% | 1017.3 hPa | 0 mm | - | 65 W/m² | - |
| 1777897463 | 22.78° C | 76% | 1017.4 hPa | 0 mm | - | 56 W/m² | - |
| 1777897160 | 22.78° C | 76% | 1017.2 hPa | 0 mm | - | 91 W/m² | - |
| 1777896855 | 23.33° C | 75% | 1017.2 hPa | 0 mm | - | 157 W/m² | - |
| 1777896553 | 23.33° C | 75% | 1017.3 hPa | 0 mm | - | 157 W/m² | - |
| 1777896250 | 22.78° C | 77% | 1017 hPa | 0 mm | - | 97 W/m² | - |
| 1777895948 | 22.78° C | 77% | 1017 hPa | 0 mm | - | 58 W/m² | - |
| 1777895646 | 22.22° C | 77% | 1017.1 hPa | 0 mm | - | 55 W/m² | - |
| 1777895343 | 22.22° C | 78% | 1017.1 hPa | 0 mm | - | 48 W/m² | - |
| 1777895041 | 22.22° C | 77% | 1017.1 hPa | 0 mm | - | 43 W/m² | - |
| 1777894738 | 22.22° C | 78% | 1016.9 hPa | 0 mm | - | 42 W/m² | - |
| 1777894434 | 22.22° C | 78% | 1017 hPa | 0 mm | - | 36 W/m² | - |
| 1777894132 | 22.22° C | 78% | 1017.2 hPa | 0 mm | - | 33 W/m² | - |
| 1777893829 | 21.67° C | 79% | 1016.9 hPa | 0 mm | - | 31 W/m² | - |
| 1777893525 | 21.67° C | 80% | 1017.1 hPa | 0 mm | - | 28 W/m² | - |
| 1777893221 | 21.67° C | 80% | 1016.8 hPa | 0 mm | - | 24 W/m² | - |
* Rain latest hour (hover to see other rain measurements)
** Current wind speed in m/s (hover to see current wind gust speed)